sensor_id;sensor_type;location;lat;lon;timestamp;P1;durP1;ratioP1;P2;durP2;ratioP2
54384;SDS011;40284;52.878;5.998;2023-07-29T00:00:46;9.70;;;8.10;;
54384;SDS011;40284;52.878;5.998;2023-07-29T00:03:12;11.63;;;8.00;;
54384;SDS011;40284;52.878;5.998;2023-07-29T00:05:38;9.35;;;8.35;;
54384;SDS011;40284;52.878;5.998;2023-07-29T00:08:04;13.40;;;9.40;;
54384;SDS011;40284;52.878;5.998;2023-07-29T00:10:35;11.15;;;8.75;;
54384;SDS011;40284;52.878;5.998;2023-07-29T00:13:02;9.15;;;8.25;;
54384;SDS011;40284;52.878;5.998;2023-07-29T00:15:29;10.98;;;8.27;;
54384;SDS011;40284;52.878;5.998;2023-07-29T00:17:55;8.52;;;7.55;;
54384;SDS011;40284;52.878;5.998;2023-07-29T00:20:21;10.52;;;7.82;;
54384;SDS011;40284;52.878;5.998;2023-07-29T00:22:47;10.52;;;8.30;;
54384;SDS011;40284;52.878;5.998;2023-07-29T00:25:19;9.18;;;7.20;;
54384;SDS011;40284;52.878;5.998;2023-07-29T00:27:45;10.95;;;8.50;;
54384;SDS011;40284;52.878;5.998;2023-07-29T00:30:11;10.95;;;9.27;;
54384;SDS011;40284;52.878;5.998;2023-07-29T00:32:37;10.48;;;9.25;;
54384;SDS011;40284;52.878;5.998;2023-07-29T00:35:03;9.65;;;8.50;;
54384;SDS011;40284;52.878;5.998;2023-07-29T00:37:30;10.05;;;8.13;;
54384;SDS011;40284;52.878;5.998;2023-07-29T00:39:56;11.30;;;8.25;;
54384;SDS011;40284;52.878;5.998;2023-07-29T00:42:23;10.50;;;7.97;;
54384;SDS011;40284;52.878;5.998;2023-07-29T00:44:49;9.63;;;8.02;;
54384;SDS011;40284;52.878;5.998;2023-07-29T00:47:15;12.05;;;8.43;;
54384;SDS011;40284;52.878;5.998;2023-07-29T00:49:44;10.70;;;8.38;;
54384;SDS011;40284;52.878;5.998;2023-07-29T00:52:11;10.07;;;7.72;;
54384;SDS011;40284;52.878;5.998;2023-07-29T00:54:40;11.43;;;8.60;;
54384;SDS011;40284;52.878;5.998;2023-07-29T00:57:08;12.45;;;8.95;;
54384;SDS011;40284;52.878;5.998;2023-07-29T00:59:34;11.55;;;8.60;;
54384;SDS011;40284;52.878;5.998;2023-07-29T01:02:00;10.80;;;8.63;;
54384;SDS011;40284;52.878;5.998;2023-07-29T01:04:27;10.32;;;7.75;;
54384;SDS011;40284;52.878;5.998;2023-07-29T01:06:55;11.65;;;8.45;;
54384;SDS011;40284;52.878;5.998;2023-07-29T01:14:28;11.32;;;9.82;;
54384;SDS011;40284;52.878;5.998;2023-07-29T01:17:00;12.48;;;9.30;;
54384;SDS011;40284;52.878;5.998;2023-07-29T01:22:02;11.93;;;10.23;;
54384;SDS011;40284;52.878;5.998;2023-07-29T01:24:28;11.55;;;10.07;;
54384;SDS011;40284;52.878;5.998;2023-07-29T01:26:54;10.43;;;9.13;;
54384;SDS011;40284;52.878;5.998;2023-07-29T01:29:20;8.85;;;7.95;;
54384;SDS011;40284;52.878;5.998;2023-07-29T01:31:47;10.25;;;7.85;;
54384;SDS011;40284;52.878;5.998;2023-07-29T01:34:19;10.40;;;8.63;;
54384;SDS011;40284;52.878;5.998;2023-07-29T01:36:50;10.30;;;8.55;;
54384;SDS011;40284;52.878;5.998;2023-07-29T01:39:17;11.40;;;8.85;;
54384;SDS011;40284;52.878;5.998;2023-07-29T01:41:44;10.60;;;8.35;;
54384;SDS011;40284;52.878;5.998;2023-07-29T01:44:10;10.70;;;8.85;;
54384;SDS011;40284;52.878;5.998;2023-07-29T01:46:37;10.18;;;8.63;;
54384;SDS011;40284;52.878;5.998;2023-07-29T01:49:03;10.80;;;9.18;;
54384;SDS011;40284;52.878;5.998;2023-07-29T01:51:29;10.60;;;9.23;;
54384;SDS011;40284;52.878;5.998;2023-07-29T01:53:55;10.63;;;8.55;;
54384;SDS011;40284;52.878;5.998;2023-07-29T01:56:21;10.20;;;8.52;;
54384;SDS011;40284;52.878;5.998;2023-07-29T01:58:47;8.82;;;7.93;;
54384;SDS011;40284;52.878;5.998;2023-07-29T02:01:13;13.35;;;10.48;;
54384;SDS011;40284;52.878;5.998;2023-07-29T02:03:40;9.65;;;8.55;;
54384;SDS011;40284;52.878;5.998;2023-07-29T02:06:06;11.70;;;8.05;;
54384;SDS011;40284;52.878;5.998;2023-07-29T02:08:32;12.95;;;7.72;;
54384;SDS011;40284;52.878;5.998;2023-07-29T02:10:59;9.73;;;7.80;;
54384;SDS011;40284;52.878;5.998;2023-07-29T02:13:25;8.38;;;6.32;;
54384;SDS011;40284;52.878;5.998;2023-07-29T02:15:51;10.63;;;7.15;;
54384;SDS011;40284;52.878;5.998;2023-07-29T02:18:17;10.07;;;7.45;;
54384;SDS011;40284;52.878;5.998;2023-07-29T02:20:43;9.38;;;6.90;;
54384;SDS011;40284;52.878;5.998;2023-07-29T02:23:14;7.82;;;6.45;;
54384;SDS011;40284;52.878;5.998;2023-07-29T02:25:41;11.10;;;7.30;;
54384;SDS011;40284;52.878;5.998;2023-07-29T02:28:07;10.05;;;7.20;;
54384;SDS011;40284;52.878;5.998;2023-07-29T02:30:33;12.30;;;6.70;;
54384;SDS011;40284;52.878;5.998;2023-07-29T02:32:59;11.55;;;6.03;;
54384;SDS011;40284;52.878;5.998;2023-07-29T02:35:26;7.40;;;4.95;;
54384;SDS011;40284;52.878;5.998;2023-07-29T02:37:52;7.63;;;5.28;;
54384;SDS011;40284;52.878;5.998;2023-07-29T02:40:18;9.05;;;4.97;;
54384;SDS011;40284;52.878;5.998;2023-07-29T02:42:46;6.05;;;5.07;;
54384;SDS011;40284;52.878;5.998;2023-07-29T02:45:12;8.13;;;5.38;;
54384;SDS011;40284;52.878;5.998;2023-07-29T02:47:38;6.82;;;5.20;;
54384;SDS011;40284;52.878;5.998;2023-07-29T02:50:04;8.48;;;5.32;;
54384;SDS011;40284;52.878;5.998;2023-07-29T02:52:30;5.47;;;4.57;;
54384;SDS011;40284;52.878;5.998;2023-07-29T02:54:56;9.30;;;4.78;;
54384;SDS011;40284;52.878;5.998;2023-07-29T02:57:23;7.78;;;4.78;;
54384;SDS011;40284;52.878;5.998;2023-07-29T02:59:49;7.15;;;4.13;;
54384;SDS011;40284;52.878;5.998;2023-07-29T03:02:15;6.57;;;4.72;;
54384;SDS011;40284;52.878;5.998;2023-07-29T03:04:41;8.75;;;4.82;;
54384;SDS011;40284;52.878;5.998;2023-07-29T03:07:07;7.13;;;4.38;;
54384;SDS011;40284;52.878;5.998;2023-07-29T03:09:33;6.43;;;4.10;;
54384;SDS011;40284;52.878;5.998;2023-07-29T03:11:59;5.55;;;4.05;;
54384;SDS011;40284;52.878;5.998;2023-07-29T03:14:25;7.45;;;3.58;;
54384;SDS011;40284;52.878;5.998;2023-07-29T03:16:52;5.82;;;3.83;;
54384;SDS011;40284;52.878;5.998;2023-07-29T03:19:19;4.97;;;3.53;;
54384;SDS011;40284;52.878;5.998;2023-07-29T03:21:45;5.88;;;3.47;;
54384;SDS011;40284;52.878;5.998;2023-07-29T03:24:11;7.22;;;3.28;;
54384;SDS011;40284;52.878;5.998;2023-07-29T03:26:37;6.35;;;3.53;;
54384;SDS011;40284;52.878;5.998;2023-07-29T03:29:03;7.78;;;3.17;;
54384;SDS011;40284;52.878;5.998;2023-07-29T03:31:29;5.15;;;3.53;;
54384;SDS011;40284;52.878;5.998;2023-07-29T03:33:55;5.00;;;3.58;;
54384;SDS011;40284;52.878;5.998;2023-07-29T03:36:21;6.30;;;3.00;;
54384;SDS011;40284;52.878;5.998;2023-07-29T03:38:50;7.60;;;3.28;;
54384;SDS011;40284;52.878;5.998;2023-07-29T03:41:16;5.38;;;3.45;;
54384;SDS011;40284;52.878;5.998;2023-07-29T03:43:42;7.65;;;3.78;;
54384;SDS011;40284;52.878;5.998;2023-07-29T03:46:08;6.18;;;3.88;;
54384;SDS011;40284;52.878;5.998;2023-07-29T03:48:35;8.73;;;3.90;;
54384;SDS011;40284;52.878;5.998;2023-07-29T03:51:01;6.78;;;3.95;;
54384;SDS011;40284;52.878;5.998;2023-07-29T03:53:27;8.60;;;3.63;;
54384;SDS011;40284;52.878;5.998;2023-07-29T03:55:53;4.80;;;3.38;;
54384;SDS011;40284;52.878;5.998;2023-07-29T03:58:19;8.27;;;3.35;;
54384;SDS011;40284;52.878;5.998;2023-07-29T04:00:45;5.40;;;2.75;;
54384;SDS011;40284;52.878;5.998;2023-07-29T04:03:11;8.90;;;3.75;;
54384;SDS011;40284;52.878;5.998;2023-07-29T04:05:37;6.07;;;3.10;;
54384;SDS011;40284;52.878;5.998;2023-07-29T04:08:03;5.10;;;3.15;;
54384;SDS011;40284;52.878;5.998;2023-07-29T04:10:29;5.00;;;3.47;;
54384;SDS011;40284;52.878;5.998;2023-07-29T04:12:56;5.57;;;3.08;;
54384;SDS011;40284;52.878;5.998;2023-07-29T04:15:22;4.78;;;2.88;;
54384;SDS011;40284;52.878;5.998;2023-07-29T04:17:48;5.28;;;3.20;;
54384;SDS011;40284;52.878;5.998;2023-07-29T04:20:15;5.68;;;2.92;;
54384;SDS011;40284;52.878;5.998;2023-07-29T04:22:41;6.10;;;2.90;;
54384;SDS011;40284;52.878;5.998;2023-07-29T04:25:07;4.43;;;2.70;;
54384;SDS011;40284;52.878;5.998;2023-07-29T04:27:33;3.83;;;2.33;;
54384;SDS011;40284;52.878;5.998;2023-07-29T04:29:59;5.55;;;2.90;;
54384;SDS011;40284;52.878;5.998;2023-07-29T04:32:25;5.55;;;2.95;;
54384;SDS011;40284;52.878;5.998;2023-07-29T04:34:51;6.05;;;2.53;;
54384;SDS011;40284;52.878;5.998;2023-07-29T04:37:17;5.57;;;3.15;;
54384;SDS011;40284;52.878;5.998;2023-07-29T04:39:43;4.47;;;2.63;;
54384;SDS011;40284;52.878;5.998;2023-07-29T04:42:09;7.05;;;2.75;;
54384;SDS011;40284;52.878;5.998;2023-07-29T04:44:35;6.60;;;2.50;;
54384;SDS011;40284;52.878;5.998;2023-07-29T04:47:01;5.60;;;2.35;;
54384;SDS011;40284;52.878;5.998;2023-07-29T04:49:27;6.15;;;3.50;;
54384;SDS011;40284;52.878;5.998;2023-07-29T04:51:54;4.63;;;3.03;;
54384;SDS011;40284;52.878;5.998;2023-07-29T04:54:20;5.50;;;2.22;;
54384;SDS011;40284;52.878;5.998;2023-07-29T04:56:46;3.85;;;2.63;;
54384;SDS011;40284;52.878;5.998;2023-07-29T04:59:12;6.72;;;2.78;;
54384;SDS011;40284;52.878;5.998;2023-07-29T05:01:38;4.45;;;2.60;;
54384;SDS011;40284;52.878;5.998;2023-07-29T05:04:04;5.25;;;2.50;;
54384;SDS011;40284;52.878;5.998;2023-07-29T05:06:31;9.00;;;2.80;;
54384;SDS011;40284;52.878;5.998;2023-07-29T05:08:57;5.60;;;2.17;;
54384;SDS011;40284;52.878;5.998;2023-07-29T05:11:23;8.68;;;2.70;;
54384;SDS011;40284;52.878;5.998;2023-07-29T05:13:52;5.57;;;2.40;;
54384;SDS011;40284;52.878;5.998;2023-07-29T05:16:18;3.63;;;2.40;;
54384;SDS011;40284;52.878;5.998;2023-07-29T05:18:44;4.25;;;2.45;;
54384;SDS011;40284;52.878;5.998;2023-07-29T05:21:11;3.60;;;2.50;;
54384;SDS011;40284;52.878;5.998;2023-07-29T05:23:39;3.92;;;2.38;;
54384;SDS011;40284;52.878;5.998;2023-07-29T05:26:05;6.22;;;2.90;;
54384;SDS011;40284;52.878;5.998;2023-07-29T05:28:31;6.32;;;2.30;;
54384;SDS011;40284;52.878;5.998;2023-07-29T05:31:00;8.52;;;2.83;;
54384;SDS011;40284;52.878;5.998;2023-07-29T05:33:26;5.63;;;2.47;;
54384;SDS011;40284;52.878;5.998;2023-07-29T05:35:52;5.47;;;2.35;;
54384;SDS011;40284;52.878;5.998;2023-07-29T05:38:18;5.47;;;2.78;;
54384;SDS011;40284;52.878;5.998;2023-07-29T05:40:44;7.40;;;2.60;;
54384;SDS011;40284;52.878;5.998;2023-07-29T05:43:11;7.38;;;3.05;;
54384;SDS011;40284;52.878;5.998;2023-07-29T05:45:37;6.93;;;3.33;;
54384;SDS011;40284;52.878;5.998;2023-07-29T05:48:03;7.60;;;3.38;;
54384;SDS011;40284;52.878;5.998;2023-07-29T05:50:29;4.70;;;2.78;;
54384;SDS011;40284;52.878;5.998;2023-07-29T05:52:55;7.82;;;3.22;;
54384;SDS011;40284;52.878;5.998;2023-07-29T05:55:21;7.95;;;3.45;;
54384;SDS011;40284;52.878;5.998;2023-07-29T05:57:47;5.70;;;3.20;;
54384;SDS011;40284;52.878;5.998;2023-07-29T06:00:13;8.88;;;3.83;;
54384;SDS011;40284;52.878;5.998;2023-07-29T06:02:39;8.52;;;3.85;;
54384;SDS011;40284;52.878;5.998;2023-07-29T06:05:08;9.32;;;3.90;;
54384;SDS011;40284;52.878;5.998;2023-07-29T06:07:34;7.93;;;3.55;;
54384;SDS011;40284;52.878;5.998;2023-07-29T06:10:00;9.18;;;3.75;;
54384;SDS011;40284;52.878;5.998;2023-07-29T06:12:26;8.35;;;3.33;;
54384;SDS011;40284;52.878;5.998;2023-07-29T06:14:53;8.80;;;3.83;;
54384;SDS011;40284;52.878;5.998;2023-07-29T06:17:19;9.32;;;3.45;;
54384;SDS011;40284;52.878;5.998;2023-07-29T06:19:45;6.88;;;3.90;;
54384;SDS011;40284;52.878;5.998;2023-07-29T06:22:11;7.70;;;3.80;;
54384;SDS011;40284;52.878;5.998;2023-07-29T06:24:37;7.82;;;3.92;;
54384;SDS011;40284;52.878;5.998;2023-07-29T06:27:03;8.52;;;4.07;;
54384;SDS011;40284;52.878;5.998;2023-07-29T06:29:29;8.80;;;3.85;;
54384;SDS011;40284;52.878;5.998;2023-07-29T06:31:55;7.60;;;3.60;;
54384;SDS011;40284;52.878;5.998;2023-07-29T06:34:21;8.15;;;4.20;;
54384;SDS011;40284;52.878;5.998;2023-07-29T06:36:47;7.40;;;4.15;;
54384;SDS011;40284;52.878;5.998;2023-07-29T06:39:13;13.13;;;4.10;;
54384;SDS011;40284;52.878;5.998;2023-07-29T06:41:39;9.32;;;3.80;;
54384;SDS011;40284;52.878;5.998;2023-07-29T06:44:05;9.52;;;4.65;;
54384;SDS011;40284;52.878;5.998;2023-07-29T06:46:32;6.30;;;3.42;;
54384;SDS011;40284;52.878;5.998;2023-07-29T06:48:58;9.25;;;3.80;;
54384;SDS011;40284;52.878;5.998;2023-07-29T06:51:24;10.10;;;4.28;;
54384;SDS011;40284;52.878;5.998;2023-07-29T06:53:50;9.95;;;4.25;;
54384;SDS011;40284;52.878;5.998;2023-07-29T06:56:16;9.32;;;3.75;;
54384;SDS011;40284;52.878;5.998;2023-07-29T06:58:42;9.20;;;3.90;;
54384;SDS011;40284;52.878;5.998;2023-07-29T07:01:08;9.27;;;3.97;;
54384;SDS011;40284;52.878;5.998;2023-07-29T07:03:34;10.88;;;4.10;;
54384;SDS011;40284;52.878;5.998;2023-07-29T07:06:00;8.05;;;4.30;;
54384;SDS011;40284;52.878;5.998;2023-07-29T07:08:26;8.88;;;4.45;;
54384;SDS011;40284;52.878;5.998;2023-07-29T07:10:52;9.93;;;4.00;;
54384;SDS011;40284;52.878;5.998;2023-07-29T07:13:18;8.85;;;4.10;;
54384;SDS011;40284;52.878;5.998;2023-07-29T07:15:44;10.63;;;4.32;;
54384;SDS011;40284;52.878;5.998;2023-07-29T07:18:10;8.18;;;3.83;;
54384;SDS011;40284;52.878;5.998;2023-07-29T07:20:36;7.80;;;4.22;;
54384;SDS011;40284;52.878;5.998;2023-07-29T07:23:03;11.32;;;5.07;;
54384;SDS011;40284;52.878;5.998;2023-07-29T07:25:30;7.97;;;4.45;;
54384;SDS011;40284;52.878;5.998;2023-07-29T07:27:56;14.70;;;4.82;;
54384;SDS011;40284;52.878;5.998;2023-07-29T07:30:23;9.43;;;3.63;;
54384;SDS011;40284;52.878;5.998;2023-07-29T07:32:49;8.68;;;4.45;;
54384;SDS011;40284;52.878;5.998;2023-07-29T07:35:15;9.00;;;4.07;;
54384;SDS011;40284;52.878;5.998;2023-07-29T07:37:42;6.60;;;3.63;;
54384;SDS011;40284;52.878;5.998;2023-07-29T07:40:08;12.60;;;4.32;;
54384;SDS011;40284;52.878;5.998;2023-07-29T07:42:34;7.43;;;3.83;;
54384;SDS011;40284;52.878;5.998;2023-07-29T07:45:00;8.73;;;3.72;;
54384;SDS011;40284;52.878;5.998;2023-07-29T07:47:26;8.73;;;3.20;;
54384;SDS011;40284;52.878;5.998;2023-07-29T07:49:52;9.13;;;3.20;;
54384;SDS011;40284;52.878;5.998;2023-07-29T07:52:18;15.48;;;4.43;;
54384;SDS011;40284;52.878;5.998;2023-07-29T07:54:44;8.63;;;4.10;;
54384;SDS011;40284;52.878;5.998;2023-07-29T07:57:10;6.78;;;3.40;;
54384;SDS011;40284;52.878;5.998;2023-07-29T07:59:36;8.18;;;3.30;;
54384;SDS011;40284;52.878;5.998;2023-07-29T08:02:03;8.52;;;3.30;;
54384;SDS011;40284;52.878;5.998;2023-07-29T08:04:29;8.57;;;2.92;;
54384;SDS011;40284;52.878;5.998;2023-07-29T08:06:55;8.80;;;3.15;;
54384;SDS011;40284;52.878;5.998;2023-07-29T08:09:21;7.40;;;3.30;;
54384;SDS011;40284;52.878;5.998;2023-07-29T08:11:47;8.13;;;3.67;;
54384;SDS011;40284;52.878;5.998;2023-07-29T08:14:13;5.88;;;3.20;;
54384;SDS011;40284;52.878;5.998;2023-07-29T08:16:39;9.85;;;3.40;;
54384;SDS011;40284;52.878;5.998;2023-07-29T08:19:05;6.45;;;3.50;;
54384;SDS011;40284;52.878;5.998;2023-07-29T08:21:34;8.32;;;3.67;;
54384;SDS011;40284;52.878;5.998;2023-07-29T08:24:00;8.52;;;3.25;;
54384;SDS011;40284;52.878;5.998;2023-07-29T08:26:26;6.75;;;3.95;;
54384;SDS011;40284;52.878;5.998;2023-07-29T08:28:52;9.43;;;3.47;;
54384;SDS011;40284;52.878;5.998;2023-07-29T08:31:18;6.35;;;3.60;;
54384;SDS011;40284;52.878;5.998;2023-07-29T08:33:44;5.07;;;2.90;;
54384;SDS011;40284;52.878;5.998;2023-07-29T08:36:10;6.88;;;2.97;;
54384;SDS011;40284;52.878;5.998;2023-07-29T08:38:36;7.05;;;2.55;;
54384;SDS011;40284;52.878;5.998;2023-07-29T08:46:32;5.80;;;2.72;;
54384;SDS011;40284;52.878;5.998;2023-07-29T08:48:59;9.30;;;3.42;;
54384;SDS011;40284;52.878;5.998;2023-07-29T08:51:26;5.18;;;2.78;;
54384;SDS011;40284;52.878;5.998;2023-07-29T08:53:53;10.15;;;3.38;;
54384;SDS011;40284;52.878;5.998;2023-07-29T08:56:19;9.90;;;3.33;;
54384;SDS011;40284;52.878;5.998;2023-07-29T08:58:45;8.60;;;2.80;;
54384;SDS011;40284;52.878;5.998;2023-07-29T09:01:12;6.55;;;2.95;;
54384;SDS011;40284;52.878;5.998;2023-07-29T09:03:38;6.40;;;2.50;;
54384;SDS011;40284;52.878;5.998;2023-07-29T09:06:04;5.55;;;2.50;;
54384;SDS011;40284;52.878;5.998;2023-07-29T09:08:31;7.80;;;2.63;;
54384;SDS011;40284;52.878;5.998;2023-07-29T09:10:57;7.82;;;2.83;;
54384;SDS011;40284;52.878;5.998;2023-07-29T09:13:24;5.38;;;2.70;;
54384;SDS011;40284;52.878;5.998;2023-07-29T09:15:53;8.43;;;2.60;;
54384;SDS011;40284;52.878;5.998;2023-07-29T09:18:20;6.82;;;2.83;;
54384;SDS011;40284;52.878;5.998;2023-07-29T09:20:47;15.43;;;2.80;;
54384;SDS011;40284;52.878;5.998;2023-07-29T09:23:14;9.50;;;3.25;;
54384;SDS011;40284;52.878;5.998;2023-07-29T09:25:40;9.05;;;2.30;;
54384;SDS011;40284;52.878;5.998;2023-07-29T09:28:13;6.47;;;2.72;;
54384;SDS011;40284;52.878;5.998;2023-07-29T09:30:40;5.35;;;2.55;;
54384;SDS011;40284;52.878;5.998;2023-07-29T09:33:08;10.50;;;2.20;;
54384;SDS011;40284;52.878;5.998;2023-07-29T09:35:34;5.32;;;2.03;;
54384;SDS011;40284;52.878;5.998;2023-07-29T09:38:03;7.80;;;2.63;;
54384;SDS011;40284;52.878;5.998;2023-07-29T09:40:40;3.58;;;1.73;;
54384;SDS011;40284;52.878;5.998;2023-07-29T09:43:06;8.88;;;2.67;;
54384;SDS011;40284;52.878;5.998;2023-07-29T09:45:33;6.45;;;2.08;;
54384;SDS011;40284;52.878;5.998;2023-07-29T09:48:00;5.82;;;1.95;;
54384;SDS011;40284;52.878;5.998;2023-07-29T09:50:26;12.30;;;2.55;;
54384;SDS011;40284;52.878;5.998;2023-07-29T09:52:53;6.15;;;2.00;;
54384;SDS011;40284;52.878;5.998;2023-07-29T09:55:22;6.85;;;2.40;;
54384;SDS011;40284;52.878;5.998;2023-07-29T09:58:07;3.25;;;2.17;;
54384;SDS011;40284;52.878;5.998;2023-07-29T10:00:33;8.88;;;2.92;;
54384;SDS011;40284;52.878;5.998;2023-07-29T10:02:59;5.95;;;1.88;;
54384;SDS011;40284;52.878;5.998;2023-07-29T10:05:26;5.22;;;1.95;;
54384;SDS011;40284;52.878;5.998;2023-07-29T10:07:53;5.95;;;1.65;;
54384;SDS011;40284;52.878;5.998;2023-07-29T10:10:20;5.00;;;1.50;;
54384;SDS011;40284;52.878;5.998;2023-07-29T10:12:46;3.58;;;1.30;;
54384;SDS011;40284;52.878;5.998;2023-07-29T10:15:12;4.65;;;1.30;;
54384;SDS011;40284;52.878;5.998;2023-07-29T10:17:39;5.18;;;1.55;;
54384;SDS011;40284;52.878;5.998;2023-07-29T10:20:06;3.28;;;1.38;;
54384;SDS011;40284;52.878;5.998;2023-07-29T10:22:34;5.05;;;1.70;;
54384;SDS011;40284;52.878;5.998;2023-07-29T10:25:04;3.03;;;1.58;;
54384;SDS011;40284;52.878;5.998;2023-07-29T10:27:43;5.40;;;1.92;;
54384;SDS011;40284;52.878;5.998;2023-07-29T10:30:12;4.32;;;1.80;;
54384;SDS011;40284;52.878;5.998;2023-07-29T10:32:39;5.82;;;1.63;;
54384;SDS011;40284;52.878;5.998;2023-07-29T10:35:08;6.95;;;2.25;;
54384;SDS011;40284;52.878;5.998;2023-07-29T10:37:34;6.38;;;2.30;;
54384;SDS011;40284;52.878;5.998;2023-07-29T10:40:01;5.53;;;2.05;;
54384;SDS011;40284;52.878;5.998;2023-07-29T10:42:31;6.13;;;1.70;;
54384;SDS011;40284;52.878;5.998;2023-07-29T10:44:57;5.88;;;2.00;;
54384;SDS011;40284;52.878;5.998;2023-07-29T10:49:51;6.90;;;2.15;;
54384;SDS011;40284;52.878;5.998;2023-07-29T10:53:18;7.75;;;2.20;;
54384;SDS011;40284;52.878;5.998;2023-07-29T10:55:30;5.50;;;1.85;;
54384;SDS011;40284;52.878;5.998;2023-07-29T10:58:13;10.95;;;3.22;;
54384;SDS011;40284;52.878;5.998;2023-07-29T11:00:42;8.65;;;2.50;;
54384;SDS011;40284;52.878;5.998;2023-07-29T11:03:08;5.03;;;2.30;;
54384;SDS011;40284;52.878;5.998;2023-07-29T11:05:41;6.68;;;3.05;;
54384;SDS011;40284;52.878;5.998;2023-07-29T11:08:17;6.95;;;2.00;;
54384;SDS011;40284;52.878;5.998;2023-07-29T11:10:44;7.93;;;2.72;;
54384;SDS011;40284;52.878;5.998;2023-07-29T11:13:22;4.88;;;2.38;;
54384;SDS011;40284;52.878;5.998;2023-07-29T11:15:48;10.00;;;2.40;;
54384;SDS011;40284;52.878;5.998;2023-07-29T11:18:16;4.97;;;2.40;;
54384;SDS011;40284;52.878;5.998;2023-07-29T11:20:42;7.88;;;3.53;;
54384;SDS011;40284;52.878;5.998;2023-07-29T11:23:10;4.97;;;2.47;;
54384;SDS011;40284;52.878;5.998;2023-07-29T11:25:36;7.35;;;1.98;;
54384;SDS011;40284;52.878;5.998;2023-07-29T11:28:03;7.53;;;2.40;;
54384;SDS011;40284;52.878;5.998;2023-07-29T11:30:29;7.57;;;2.58;;
54384;SDS011;40284;52.878;5.998;2023-07-29T11:32:56;6.15;;;2.88;;
54384;SDS011;40284;52.878;5.998;2023-07-29T11:35:22;5.60;;;2.42;;
54384;SDS011;40284;52.878;5.998;2023-07-29T11:37:49;4.38;;;2.47;;
54384;SDS011;40284;52.878;5.998;2023-07-29T11:40:16;5.50;;;2.30;;
54384;SDS011;40284;52.878;5.998;2023-07-29T11:42:43;5.90;;;2.60;;
54384;SDS011;40284;52.878;5.998;2023-07-29T11:45:09;5.70;;;2.67;;
54384;SDS011;40284;52.878;5.998;2023-07-29T11:47:36;5.20;;;2.45;;
54384;SDS011;40284;52.878;5.998;2023-07-29T11:50:03;6.03;;;2.22;;
54384;SDS011;40284;52.878;5.998;2023-07-29T11:52:29;8.95;;;3.03;;
54384;SDS011;40284;52.878;5.998;2023-07-29T11:54:56;6.05;;;2.40;;
54384;SDS011;40284;52.878;5.998;2023-07-29T11:57:23;4.28;;;2.30;;
54384;SDS011;40284;52.878;5.998;2023-07-29T11:59:49;5.57;;;2.25;;
54384;SDS011;40284;52.878;5.998;2023-07-29T12:02:16;4.82;;;2.20;;
54384;SDS011;40284;52.878;5.998;2023-07-29T12:04:43;4.63;;;2.55;;
54384;SDS011;40284;52.878;5.998;2023-07-29T12:07:09;5.32;;;2.20;;
54384;SDS011;40284;52.878;5.998;2023-07-29T12:09:36;5.10;;;2.35;;
54384;SDS011;40284;52.878;5.998;2023-07-29T12:12:03;7.32;;;3.15;;
54384;SDS011;40284;52.878;5.998;2023-07-29T12:14:29;8.10;;;3.00;;
54384;SDS011;40284;52.878;5.998;2023-07-29T12:16:55;6.07;;;2.65;;
54384;SDS011;40284;52.878;5.998;2023-07-29T12:19:21;6.70;;;2.10;;
54384;SDS011;40284;52.878;5.998;2023-07-29T12:21:48;6.47;;;2.10;;
54384;SDS011;40284;52.878;5.998;2023-07-29T12:24:14;6.43;;;2.60;;
54384;SDS011;40284;52.878;5.998;2023-07-29T12:26:41;6.03;;;2.15;;
54384;SDS011;40284;52.878;5.998;2023-07-29T12:29:14;9.52;;;2.10;;
54384;SDS011;40284;52.878;5.998;2023-07-29T12:31:40;3.90;;;1.90;;
54384;SDS011;40284;52.878;5.998;2023-07-29T12:34:07;5.47;;;2.13;;
54384;SDS011;40284;52.878;5.998;2023-07-29T12:36:42;2.45;;;1.42;;
54384;SDS011;40284;52.878;5.998;2023-07-29T12:39:18;6.40;;;2.15;;
54384;SDS011;40284;52.878;5.998;2023-07-29T12:41:45;3.72;;;1.52;;
54384;SDS011;40284;52.878;5.998;2023-07-29T12:44:11;3.78;;;1.30;;
54384;SDS011;40284;52.878;5.998;2023-07-29T12:46:37;2.70;;;1.25;;
54384;SDS011;40284;52.878;5.998;2023-07-29T12:49:03;2.70;;;1.30;;
54384;SDS011;40284;52.878;5.998;2023-07-29T12:51:29;3.72;;;1.38;;
54384;SDS011;40284;52.878;5.998;2023-07-29T12:53:55;4.00;;;1.38;;
54384;SDS011;40284;52.878;5.998;2023-07-29T12:56:21;3.72;;;1.52;;
54384;SDS011;40284;52.878;5.998;2023-07-29T12:58:48;3.03;;;1.15;;
54384;SDS011;40284;52.878;5.998;2023-07-29T13:01:14;4.72;;;1.33;;
54384;SDS011;40284;52.878;5.998;2023-07-29T13:03:43;3.08;;;1.10;;
54384;SDS011;40284;52.878;5.998;2023-07-29T13:06:09;2.53;;;1.40;;
54384;SDS011;40284;52.878;5.998;2023-07-29T13:08:35;3.00;;;1.20;;
54384;SDS011;40284;52.878;5.998;2023-07-29T13:11:02;5.18;;;1.50;;
54384;SDS011;40284;52.878;5.998;2023-07-29T13:13:28;4.20;;;1.17;;
54384;SDS011;40284;52.878;5.998;2023-07-29T13:15:54;4.55;;;1.42;;
54384;SDS011;40284;52.878;5.998;2023-07-29T13:18:21;5.60;;;1.30;;
54384;SDS011;40284;52.878;5.998;2023-07-29T13:20:47;3.75;;;1.55;;
54384;SDS011;40284;52.878;5.998;2023-07-29T13:23:13;3.97;;;1.70;;
54384;SDS011;40284;52.878;5.998;2023-07-29T13:25:39;3.90;;;1.40;;
54384;SDS011;40284;52.878;5.998;2023-07-29T13:28:05;4.88;;;1.67;;
54384;SDS011;40284;52.878;5.998;2023-07-29T13:30:32;3.22;;;1.48;;
54384;SDS011;40284;52.878;5.998;2023-07-29T13:32:58;8.98;;;1.95;;
54384;SDS011;40284;52.878;5.998;2023-07-29T13:35:24;4.13;;;1.20;;
54384;SDS011;40284;52.878;5.998;2023-07-29T13:37:50;3.33;;;1.25;;
54384;SDS011;40284;52.878;5.998;2023-07-29T13:40:16;2.67;;;0.95;;
54384;SDS011;40284;52.878;5.998;2023-07-29T13:42:43;2.80;;;1.33;;
54384;SDS011;40284;52.878;5.998;2023-07-29T13:45:09;4.00;;;0.98;;
54384;SDS011;40284;52.878;5.998;2023-07-29T13:47:35;1.98;;;0.82;;
54384;SDS011;40284;52.878;5.998;2023-07-29T13:50:01;1.40;;;0.82;;
54384;SDS011;40284;52.878;5.998;2023-07-29T13:52:27;4.28;;;1.00;;
54384;SDS011;40284;52.878;5.998;2023-07-29T13:54:53;1.60;;;0.80;;
54384;SDS011;40284;52.878;5.998;2023-07-29T13:57:20;3.83;;;1.30;;
54384;SDS011;40284;52.878;5.998;2023-07-29T13:59:46;2.05;;;1.15;;
54384;SDS011;40284;52.878;5.998;2023-07-29T14:02:12;2.33;;;0.70;;
54384;SDS011;40284;52.878;5.998;2023-07-29T14:04:39;4.15;;;1.10;;
54384;SDS011;40284;52.878;5.998;2023-07-29T14:07:05;3.15;;;0.93;;
54384;SDS011;40284;52.878;5.998;2023-07-29T14:09:32;1.67;;;0.82;;
54384;SDS011;40284;52.878;5.998;2023-07-29T14:11:58;3.05;;;0.95;;
54384;SDS011;40284;52.878;5.998;2023-07-29T14:14:24;2.47;;;1.10;;
54384;SDS011;40284;52.878;5.998;2023-07-29T14:16:50;1.23;;;0.70;;
54384;SDS011;40284;52.878;5.998;2023-07-29T14:19:16;5.95;;;0.88;;
54384;SDS011;40284;52.878;5.998;2023-07-29T14:21:42;2.50;;;1.02;;
54384;SDS011;40284;52.878;5.998;2023-07-29T14:24:08;2.13;;;0.90;;
54384;SDS011;40284;52.878;5.998;2023-07-29T14:26:34;4.35;;;1.50;;
54384;SDS011;40284;52.878;5.998;2023-07-29T14:29:00;4.82;;;1.15;;
54384;SDS011;40284;52.878;5.998;2023-07-29T14:31:27;3.30;;;1.05;;
54384;SDS011;40284;52.878;5.998;2023-07-29T14:33:53;3.33;;;1.05;;
54384;SDS011;40284;52.878;5.998;2023-07-29T14:36:19;4.05;;;1.08;;
54384;SDS011;40284;52.878;5.998;2023-07-29T14:38:45;2.53;;;1.13;;
54384;SDS011;40284;52.878;5.998;2023-07-29T14:41:11;3.78;;;1.60;;
54384;SDS011;40284;52.878;5.998;2023-07-29T14:43:37;5.90;;;1.55;;
54384;SDS011;40284;52.878;5.998;2023-07-29T14:46:03;3.97;;;1.50;;
54384;SDS011;40284;52.878;5.998;2023-07-29T14:48:29;3.25;;;1.20;;
54384;SDS011;40284;52.878;5.998;2023-07-29T14:50:55;3.25;;;1.45;;
54384;SDS011;40284;52.878;5.998;2023-07-29T14:53:21;3.35;;;1.45;;
54384;SDS011;40284;52.878;5.998;2023-07-29T14:55:48;2.47;;;1.08;;
54384;SDS011;40284;52.878;5.998;2023-07-29T14:58:14;3.22;;;1.25;;